createdAt,value
2018-09-19T00:00:06.034Z,0.00
2018-09-19T00:01:06.192Z,0.00
2018-09-19T00:02:06.335Z,0.00
2018-09-19T00:03:06.491Z,0.00
2018-09-19T00:04:06.644Z,0.00
2018-09-19T00:05:06.798Z,0.00
2018-09-19T00:06:06.950Z,0.00
2018-09-19T00:07:07.105Z,0.00
2018-09-19T00:08:07.260Z,0.00
2018-09-19T00:09:07.412Z,0.00
2018-09-19T00:10:07.568Z,0.00
2018-09-19T00:11:07.720Z,0.00
2018-09-19T00:12:07.876Z,0.00
2018-09-19T00:13:08.030Z,0.00
2018-09-19T00:14:08.190Z,0.00
2018-09-19T00:15:08.337Z,0.00
2018-09-19T00:16:08.488Z,0.00
2018-09-19T00:17:08.643Z,0.00
2018-09-19T00:18:08.801Z,0.00
2018-09-19T00:19:08.950Z,0.00
2018-09-19T00:20:09.140Z,0.00
2018-09-19T00:21:09.259Z,0.00
2018-09-19T00:22:09.416Z,0.00
2018-09-19T00:23:09.562Z,0.00
2018-09-19T00:24:09.716Z,0.00
2018-09-19T00:25:09.887Z,0.00
2018-09-19T00:26:10.030Z,0.00
2018-09-19T00:27:10.177Z,0.00
2018-09-19T00:28:10.331Z,0.00
2018-09-19T00:29:10.485Z,0.00
2018-09-19T00:30:10.637Z,0.00
2018-09-19T00:31:10.792Z,0.00
2018-09-19T00:32:10.945Z,0.00
2018-09-19T00:33:11.097Z,0.00
2018-09-19T00:34:11.252Z,0.00
2018-09-19T00:35:11.404Z,0.00
2018-09-19T00:36:11.557Z,0.00
2018-09-19T00:37:11.709Z,0.00
2018-09-19T00:38:11.862Z,0.00
2018-09-19T00:39:12.014Z,0.00
2018-09-19T00:40:12.172Z,0.00
2018-09-19T00:41:12.324Z,0.00
2018-09-19T00:42:12.475Z,0.00
2018-09-19T00:43:12.628Z,0.00
2018-09-19T00:44:12.815Z,0.00
2018-09-19T00:45:12.934Z,0.00
2018-09-19T00:46:13.088Z,0.00
2018-09-19T00:47:13.242Z,0.00
2018-09-19T00:48:13.393Z,0.00
2018-09-19T00:49:13.543Z,0.00
2018-09-19T00:50:13.698Z,0.00
2018-09-19T00:51:13.851Z,0.00
2018-09-19T00:52:14.036Z,0.00
2018-09-19T00:53:14.160Z,0.00
2018-09-19T00:54:14.312Z,0.00
2018-09-19T00:55:14.465Z,0.00
2018-09-19T00:56:14.615Z,0.00
2018-09-19T00:57:14.772Z,0.00
2018-09-19T00:58:14.923Z,0.00
2018-09-19T00:59:15.077Z,0.00
2018-09-19T01:00:15.232Z,0.00
2018-09-19T01:01:15.384Z,0.00
2018-09-19T01:02:15.538Z,0.00
2018-09-19T01:03:15.689Z,0.00
2018-09-19T01:04:15.838Z,0.00
2018-09-19T01:05:16.005Z,0.00
2018-09-19T01:06:16.148Z,0.00
2018-09-19T01:07:16.298Z,0.00
2018-09-19T01:08:16.456Z,0.00
2018-09-19T01:09:16.602Z,0.00
2018-09-19T01:10:16.759Z,0.00
2018-09-19T01:11:16.910Z,0.00
2018-09-19T01:12:17.062Z,0.00
2018-09-19T01:13:17.221Z,0.00
2018-09-19T01:14:17.367Z,0.00
2018-09-19T01:15:17.529Z,0.00
2018-09-19T01:16:17.675Z,0.00
2018-09-19T01:17:17.818Z,0.00
2018-09-19T01:18:17.976Z,0.00
2018-09-19T01:19:18.124Z,0.00
2018-09-19T01:20:18.278Z,0.00
2018-09-19T01:21:18.444Z,0.00
2018-09-19T01:22:18.635Z,0.00
2018-09-19T01:23:18.737Z,0.00
2018-09-19T01:24:18.893Z,0.00
2018-09-19T01:25:19.041Z,0.00
2018-09-19T01:26:19.192Z,0.00
2018-09-19T01:27:19.347Z,0.00
2018-09-19T01:28:19.500Z,0.00
2018-09-19T01:29:19.647Z,0.00
2018-09-19T01:30:19.801Z,0.00
2018-09-19T01:31:19.954Z,0.00
2018-09-19T01:32:20.087Z,0.00
2018-09-19T01:33:20.237Z,0.00
2018-09-19T01:34:20.387Z,0.00
2018-09-19T01:35:20.541Z,0.00
2018-09-19T01:36:20.692Z,0.00
2018-09-19T01:37:20.847Z,0.00
2018-09-19T01:38:21.000Z,0.00
2018-09-19T01:39:21.152Z,0.00
2018-09-19T01:40:21.305Z,0.00
2018-09-19T01:41:21.456Z,0.00
2018-09-19T01:42:21.609Z,0.00
2018-09-19T01:43:21.767Z,0.00
2018-09-19T01:44:21.915Z,0.00
2018-09-19T01:45:22.077Z,0.00
2018-09-19T01:46:22.223Z,0.00
2018-09-19T01:47:22.374Z,0.00
2018-09-19T01:48:22.528Z,0.00
2018-09-19T01:49:22.680Z,0.00
2018-09-19T01:50:22.834Z,0.00
2018-09-19T01:51:22.984Z,0.00
2018-09-19T01:52:23.137Z,0.00
2018-09-19T01:53:23.289Z,0.00
2018-09-19T01:54:23.443Z,0.00
2018-09-19T01:55:23.598Z,0.00
2018-09-19T01:56:23.743Z,0.00
2018-09-19T01:57:23.898Z,0.00
2018-09-19T01:58:24.049Z,0.00
2018-09-19T01:59:24.200Z,0.00
2018-09-19T02:00:24.351Z,0.00
2018-09-19T02:01:24.506Z,0.00
2018-09-19T02:02:24.661Z,0.00
2018-09-19T02:03:24.809Z,0.00
2018-09-19T02:04:24.959Z,0.00
2018-09-19T02:05:25.113Z,0.00
2018-09-19T02:06:25.263Z,0.00
2018-09-19T02:07:25.416Z,0.00
2018-09-19T02:08:25.570Z,0.00
2018-09-19T02:09:25.721Z,0.00
2018-09-19T02:10:25.879Z,0.00
2018-09-19T02:11:26.020Z,0.00
2018-09-19T02:12:26.173Z,0.00
2018-09-19T02:13:26.336Z,0.00
2018-09-19T02:14:26.479Z,0.00
2018-09-19T02:15:26.629Z,0.00
2018-09-19T02:16:26.781Z,0.00
2018-09-19T02:17:26.934Z,0.00
2018-09-19T02:18:27.090Z,0.00
2018-09-19T02:19:27.238Z,0.00
2018-09-19T02:20:27.390Z,0.00
2018-09-19T02:21:27.600Z,0.00
2018-09-19T02:22:27.752Z,0.00
2018-09-19T02:23:27.900Z,0.00
2018-09-19T02:24:28.053Z,0.00
2018-09-19T02:25:28.206Z,0.00
2018-09-19T02:26:28.396Z,0.00
2018-09-19T02:27:28.512Z,0.00
2018-09-19T02:28:28.694Z,0.00
2018-09-19T02:29:28.818Z,0.00
2018-09-19T02:30:28.968Z,0.00
2018-09-19T02:31:29.122Z,0.00
2018-09-19T02:32:29.275Z,0.00
2018-09-19T02:33:29.433Z,0.00
2018-09-19T02:34:29.580Z,0.00
2018-09-19T02:35:29.732Z,0.00
2018-09-19T02:36:29.894Z,0.00
2018-09-19T02:37:30.041Z,0.00
2018-09-19T02:38:30.210Z,0.00
2018-09-19T02:39:30.346Z,0.00
2018-09-19T02:40:30.497Z,0.00
2018-09-19T02:41:30.659Z,0.00
2018-09-19T02:42:30.809Z,0.00
2018-09-19T02:43:30.957Z,0.00
2018-09-19T02:44:31.112Z,0.00
2018-09-19T02:45:31.264Z,0.00
2018-09-19T02:46:31.414Z,0.00
2018-09-19T02:47:31.567Z,0.00
2018-09-19T02:48:31.727Z,0.00
2018-09-19T02:49:31.875Z,0.00
2018-09-19T02:50:32.026Z,0.00
2018-09-19T02:51:32.190Z,0.00
2018-09-19T02:52:32.333Z,0.00
2018-09-19T02:53:32.494Z,0.00
2018-09-19T02:54:32.636Z,0.00
2018-09-19T02:55:32.789Z,0.00
2018-09-19T02:56:32.945Z,0.00
2018-09-19T02:57:33.098Z,0.00
2018-09-19T02:58:33.250Z,0.00
2018-09-19T02:59:33.403Z,0.00
2018-09-19T03:00:33.627Z,0.00
2018-09-19T03:01:33.713Z,0.00
2018-09-19T03:02:33.861Z,0.00
2018-09-19T03:03:34.015Z,0.00
2018-09-19T03:04:34.166Z,0.00
2018-09-19T03:05:34.318Z,0.00
2018-09-19T03:06:34.473Z,0.00
2018-09-19T03:07:34.625Z,0.00
2018-09-19T03:08:34.777Z,0.00
2018-09-19T03:09:34.929Z,0.00
2018-09-19T03:10:35.080Z,0.00
2018-09-19T03:11:35.231Z,0.00
2018-09-19T03:12:35.384Z,0.00
2018-09-19T03:13:35.546Z,0.00
2018-09-19T03:14:35.689Z,0.00
2018-09-19T03:15:35.846Z,0.00
2018-09-19T03:16:35.997Z,0.00
2018-09-19T03:17:36.233Z,0.00
2018-09-19T03:18:36.303Z,0.00
2018-09-19T03:19:36.457Z,0.00
2018-09-19T03:20:36.609Z,0.00
2018-09-19T03:21:36.759Z,0.00
2018-09-19T03:22:36.914Z,0.00
2018-09-19T03:23:37.069Z,0.00
2018-09-19T03:24:37.223Z,0.00
2018-09-19T03:25:37.372Z,0.00
2018-09-19T03:26:37.517Z,0.00
2018-09-19T03:27:37.678Z,0.00
2018-09-19T03:28:37.831Z,0.00
2018-09-19T03:29:37.983Z,0.00
2018-09-19T03:30:38.134Z,0.00
2018-09-19T03:31:38.343Z,0.00
2018-09-19T03:32:38.439Z,0.00
2018-09-19T03:33:38.599Z,0.00
2018-09-19T03:34:38.744Z,0.00
2018-09-19T03:35:38.896Z,0.00
2018-09-19T03:36:39.049Z,0.00
2018-09-19T03:37:39.200Z,0.00
2018-09-19T03:38:39.353Z,0.00
2018-09-19T03:39:39.504Z,0.00
2018-09-19T03:40:39.656Z,0.00
2018-09-19T03:41:39.807Z,0.00
2018-09-19T03:42:39.963Z,0.00
2018-09-19T03:43:40.117Z,0.00
2018-09-19T03:44:40.265Z,0.00
2018-09-19T03:45:40.422Z,0.00
2018-09-19T03:46:40.568Z,0.00
2018-09-19T03:47:40.723Z,0.00
2018-09-19T03:48:40.877Z,0.00
2018-09-19T03:49:41.034Z,0.00
2018-09-19T03:50:41.183Z,0.00
2018-09-19T03:51:41.336Z,0.00
2018-09-19T03:52:41.489Z,0.00
2018-09-19T03:53:41.642Z,0.00
2018-09-19T03:54:41.797Z,0.00
2018-09-19T03:55:41.945Z,0.00
2018-09-19T03:56:42.101Z,0.00
2018-09-19T03:57:42.251Z,0.00
2018-09-19T03:58:42.407Z,0.00
2018-09-19T03:59:42.562Z,0.00
2018-09-19T04:00:42.711Z,0.00
2018-09-19T04:01:42.863Z,0.00
2018-09-19T04:02:43.010Z,0.00
2018-09-19T04:03:43.176Z,0.00
2018-09-19T04:04:43.326Z,0.00
2018-09-19T04:05:43.481Z,0.00
2018-09-19T04:06:43.637Z,0.00
2018-09-19T04:07:43.785Z,0.00
2018-09-19T04:08:43.938Z,0.00
2018-09-19T04:09:44.091Z,0.00
2018-09-19T04:10:44.242Z,0.00
2018-09-19T04:11:44.395Z,0.00
2018-09-19T04:12:44.547Z,0.00
2018-09-19T04:13:44.703Z,0.00
2018-09-19T04:14:44.854Z,0.00
2018-09-19T04:15:45.008Z,0.00
2018-09-19T04:16:45.160Z,0.00
2018-09-19T04:17:45.385Z,0.00
2018-09-19T04:18:45.469Z,0.00
2018-09-19T04:19:45.634Z,0.00
2018-09-19T04:20:45.775Z,0.00
2018-09-19T04:21:45.924Z,0.00
2018-09-19T04:22:46.081Z,0.00
2018-09-19T04:23:46.234Z,0.00
2018-09-19T04:24:46.384Z,0.00
2018-09-19T04:25:46.534Z,0.00
2018-09-19T04:26:46.684Z,0.00
2018-09-19T04:27:46.839Z,0.00
2018-09-19T04:28:46.990Z,0.00
2018-09-19T04:29:47.143Z,4.00
2018-09-19T04:30:47.295Z,4.00
2018-09-19T04:31:47.461Z,0.00
2018-09-19T04:32:47.597Z,4.00
2018-09-19T04:33:47.774Z,4.00
2018-09-19T04:34:47.900Z,4.00
2018-09-19T04:35:48.049Z,4.00
2018-09-19T04:36:48.199Z,4.00
2018-09-19T04:37:48.369Z,4.00
2018-09-19T04:38:48.539Z,8.00
2018-09-19T04:39:48.644Z,12.00
2018-09-19T04:40:48.789Z,12.00
2018-09-19T04:41:48.942Z,12.00
2018-09-19T04:42:49.091Z,12.00
2018-09-19T04:43:49.311Z,16.00
2018-09-19T04:44:49.386Z,20.00
2018-09-19T04:45:49.538Z,24.00
2018-09-19T04:46:49.686Z,28.00
2018-09-19T04:47:49.855Z,32.00
2018-09-19T04:48:49.990Z,40.00
2018-09-19T04:49:50.172Z,40.00
2018-09-19T04:50:50.320Z,52.00
2018-09-19T04:51:50.481Z,56.00
2018-09-19T04:52:50.626Z,64.00
2018-09-19T04:53:50.775Z,76.00
2018-09-19T04:54:50.925Z,84.00
2018-09-19T04:55:51.080Z,92.00
2018-09-19T04:56:51.226Z,104.00
2018-09-19T04:57:51.380Z,116.00
2018-09-19T04:58:51.530Z,128.00
2018-09-19T04:59:51.681Z,144.00
2018-09-19T05:00:51.835Z,160.00
2018-09-19T05:01:51.989Z,180.00
2018-09-19T05:02:52.137Z,200.00
2018-09-19T05:03:52.294Z,216.00
2018-09-19T05:04:52.446Z,236.00
2018-09-19T05:05:52.670Z,260.00
2018-09-19T05:06:52.750Z,284.00
2018-09-19T05:07:52.943Z,316.00
2018-09-19T05:08:53.057Z,344.00
2018-09-19T05:09:53.208Z,372.00
2018-09-19T05:10:53.352Z,408.00
2018-09-19T05:11:53.510Z,448.00
2018-09-19T05:12:53.656Z,496.00
2018-09-19T05:13:53.809Z,548.00
2018-09-19T05:14:53.962Z,596.00
2018-09-19T05:15:54.114Z,644.00
2018-09-19T05:16:54.268Z,700.00
2018-09-19T05:17:54.419Z,752.00
2018-09-19T05:18:54.574Z,808.00
2018-09-19T05:19:54.731Z,864.00
2018-09-19T05:20:54.883Z,924.00
2018-09-19T05:21:55.036Z,992.00
2018-09-19T05:22:55.188Z,1056.00
2018-09-19T05:23:55.340Z,1116.00
2018-09-19T05:24:55.501Z,1180.00
2018-09-19T05:25:55.650Z,1244.00
2018-09-19T05:26:55.798Z,1304.00
2018-09-19T05:27:55.951Z,1368.00
2018-09-19T05:28:56.103Z,1440.00
2018-09-19T05:29:56.262Z,1512.00
2018-09-19T05:30:56.412Z,1576.00
2018-09-19T05:31:56.564Z,1648.00
2018-09-19T05:32:56.716Z,1712.00
2018-09-19T05:33:56.868Z,1784.00
2018-09-19T05:34:57.020Z,1860.00
2018-09-19T05:35:57.175Z,1932.00
2018-09-19T05:36:57.326Z,2008.00
2018-09-19T05:37:57.485Z,2084.00
2018-09-19T05:38:57.635Z,2156.00
2018-09-19T05:39:57.785Z,2232.00
2018-09-19T05:40:57.937Z,2308.00
2018-09-19T05:41:58.089Z,2392.00
2018-09-19T05:42:58.242Z,2480.00
2018-09-19T05:43:58.392Z,2548.00
2018-09-19T05:44:58.547Z,2604.00
2018-09-19T05:45:58.696Z,2680.00
2018-09-19T05:46:58.850Z,2772.00
2018-09-19T05:47:59.005Z,2860.00
2018-09-19T05:48:59.167Z,2908.00
2018-09-19T05:49:59.308Z,2972.00
2018-09-19T05:50:59.460Z,3020.00
2018-09-19T05:51:59.613Z,3044.00
2018-09-19T05:52:59.764Z,3068.00
2018-09-19T05:53:59.915Z,3028.00
2018-09-19T05:55:00.071Z,2980.00
2018-09-19T05:56:00.217Z,2960.00
2018-09-19T05:57:00.371Z,2984.00
2018-09-19T05:58:00.525Z,3116.00
2018-09-19T05:59:00.674Z,3152.00
2018-09-19T06:00:00.831Z,3168.00
2018-09-19T06:01:00.984Z,3172.00
2018-09-19T06:02:01.135Z,3084.00
2018-09-19T06:03:01.290Z,3056.00
2018-09-19T06:04:01.442Z,3084.00
2018-09-19T06:05:01.702Z,3088.00
2018-09-19T06:06:01.751Z,3104.00
2018-09-19T06:07:01.905Z,3120.00
2018-09-19T06:08:02.072Z,3136.00
2018-09-19T06:09:02.201Z,3156.00
2018-09-19T06:10:02.354Z,3188.00
2018-09-19T06:11:02.506Z,3212.00
2018-09-19T06:12:02.659Z,3272.00
2018-09-19T06:13:02.813Z,3252.00
2018-09-19T06:14:02.964Z,3284.00
2018-09-19T06:15:03.121Z,3492.00
2018-09-19T06:16:03.271Z,3528.00
2018-09-19T06:17:03.423Z,3524.00
2018-09-19T06:18:03.579Z,3516.00
2018-09-19T06:19:03.731Z,3468.00
2018-09-19T06:20:03.885Z,3428.00
2018-09-19T06:21:04.037Z,3408.00
2018-09-19T06:22:04.193Z,3420.00
2018-09-19T06:23:04.343Z,3392.00
2018-09-19T06:24:04.500Z,3340.00
2018-09-19T06:25:04.650Z,3244.00
2018-09-19T06:26:04.805Z,3032.00
2018-09-19T06:27:05.000Z,3124.00
2018-09-19T06:28:05.113Z,3012.00
2018-09-19T06:29:05.268Z,2976.00
2018-09-19T06:30:05.419Z,2996.00
2018-09-19T06:31:05.571Z,3008.00
2018-09-19T06:32:05.725Z,3052.00
2018-09-19T06:33:05.988Z,3124.00
2018-09-19T06:34:06.030Z,3276.00
2018-09-19T06:35:06.207Z,3340.00
2018-09-19T06:36:06.356Z,3304.00
2018-09-19T06:37:06.560Z,3192.00
2018-09-19T06:38:06.659Z,2972.00
2018-09-19T06:39:06.810Z,2932.00
2018-09-19T06:40:07.000Z,2972.00
2018-09-19T06:41:07.113Z,2948.00
2018-09-19T06:42:07.271Z,2980.00
2018-09-19T06:43:07.422Z,2996.00
2018-09-19T06:44:07.577Z,3024.00
2018-09-19T06:45:07.727Z,3072.00
2018-09-19T06:46:07.881Z,3080.00
2018-09-19T06:47:08.034Z,3116.00
2018-09-19T06:48:08.189Z,3160.00
2018-09-19T06:49:08.338Z,3468.00
2018-09-19T06:50:08.490Z,3476.00
2018-09-19T06:51:08.648Z,3608.00
2018-09-19T06:52:08.899Z,3548.00
2018-09-19T06:53:08.948Z,3792.00
2018-09-19T06:54:09.105Z,3856.00
2018-09-19T06:55:09.262Z,3772.00
2018-09-19T06:56:09.414Z,3796.00
2018-09-19T06:57:09.565Z,3816.00
2018-09-19T06:58:09.717Z,3724.00
2018-09-19T06:59:09.869Z,3800.00
2018-09-19T07:00:10.028Z,3784.00
2018-09-19T07:01:10.181Z,3568.00
2018-09-19T07:02:10.332Z,3424.00
2018-09-19T07:03:10.482Z,3464.00
2018-09-19T07:04:10.639Z,3720.00
2018-09-19T07:05:10.790Z,3704.00
2018-09-19T07:06:10.944Z,3752.00
2018-09-19T07:07:11.096Z,3860.00
2018-09-19T07:08:11.250Z,3936.00
2018-09-19T07:09:11.406Z,3916.00
2018-09-19T07:10:11.558Z,3768.00
2018-09-19T07:11:11.713Z,3512.00
2018-09-19T07:12:11.865Z,3336.00
2018-09-19T07:13:12.019Z,3360.00
2018-09-19T07:14:12.169Z,3448.00
2018-09-19T07:15:12.330Z,3488.00
2018-09-19T07:16:12.481Z,3580.00
2018-09-19T07:17:12.634Z,4020.00
2018-09-19T07:18:12.789Z,4068.00
2018-09-19T07:19:12.942Z,4096.00
2018-09-19T07:20:13.095Z,4128.00
2018-09-19T07:21:13.248Z,4160.00
2018-09-19T07:22:13.404Z,4168.00
2018-09-19T07:23:13.558Z,4180.00
2018-09-19T07:24:13.763Z,4184.00
2018-09-19T07:25:13.937Z,4200.00
2018-09-19T07:26:14.020Z,4212.00
2018-09-19T07:27:14.173Z,4212.00
2018-09-19T07:28:14.324Z,4220.00
2018-09-19T07:29:14.479Z,4224.00
2018-09-19T07:30:14.633Z,4236.00
2018-09-19T07:31:14.876Z,4252.00
2018-09-19T07:32:14.945Z,4276.00
2018-09-19T07:33:15.093Z,4304.00
2018-09-19T07:34:15.246Z,4308.00
2018-09-19T07:35:15.406Z,4312.00
2018-09-19T07:36:15.554Z,4324.00
2018-09-19T07:37:15.715Z,4340.00
2018-09-19T07:38:15.862Z,4348.00
2018-09-19T07:39:16.056Z,4360.00
2018-09-19T07:40:16.237Z,4376.00
2018-09-19T07:41:16.322Z,4364.00
2018-09-19T07:42:16.481Z,4356.00
2018-09-19T07:43:16.634Z,4388.00
2018-09-19T07:44:16.786Z,4424.00
2018-09-19T07:45:16.943Z,4420.00
2018-09-19T07:46:17.096Z,4432.00
2018-09-19T07:47:17.249Z,4448.00
2018-09-19T07:48:17.405Z,4452.00
2018-09-19T07:49:17.560Z,4460.00
2018-09-19T07:50:17.715Z,4460.00
2018-09-19T07:51:17.869Z,4468.00
2018-09-19T07:52:18.029Z,4460.00
2018-09-19T07:53:18.179Z,4480.00
2018-09-19T07:54:18.333Z,4504.00
2018-09-19T07:55:18.543Z,4512.00
2018-09-19T07:56:18.649Z,4508.00
2018-09-19T07:57:18.802Z,4500.00
2018-09-19T07:58:18.966Z,4504.00
2018-09-19T07:59:19.119Z,4528.00
2018-09-19T08:00:19.270Z,4524.00
2018-09-19T08:01:19.511Z,4540.00
2018-09-19T08:02:19.576Z,4556.00
2018-09-19T08:03:19.735Z,4572.00
2018-09-19T08:04:19.886Z,4580.00
2018-09-19T08:05:20.054Z,4604.00
2018-09-19T08:06:20.235Z,4620.00
2018-09-19T08:07:20.358Z,4632.00
2018-09-19T08:08:20.515Z,4660.00
2018-09-19T08:09:20.671Z,4668.00
2018-09-19T08:10:20.826Z,4684.00
2018-09-19T08:11:20.981Z,4700.00
2018-09-19T08:12:21.135Z,4708.00
2018-09-19T08:13:21.289Z,4724.00
2018-09-19T08:14:21.444Z,4732.00
2018-09-19T08:15:21.600Z,4740.00
2018-09-19T08:16:21.755Z,4756.00
2018-09-19T08:17:21.910Z,4748.00
2018-09-19T08:18:22.066Z,4752.00
2018-09-19T08:19:22.223Z,4776.00
2018-09-19T08:20:22.377Z,4760.00
2018-09-19T08:21:22.531Z,4756.00
2018-09-19T08:22:22.688Z,4736.00
2018-09-19T08:23:22.841Z,4828.00
2018-09-19T08:24:22.997Z,4840.00
2018-09-19T08:25:23.153Z,4852.00
2018-09-19T08:26:23.313Z,4860.00
2018-09-19T08:27:23.465Z,4872.00
2018-09-19T08:28:23.649Z,4880.00
2018-09-19T08:29:23.780Z,4896.00
2018-09-19T08:30:23.931Z,4908.00
2018-09-19T08:31:24.084Z,4924.00
2018-09-19T08:32:24.242Z,4944.00
2018-09-19T08:33:24.398Z,4664.00
2018-09-19T08:34:24.554Z,4972.00
2018-09-19T08:35:24.706Z,4964.00
2018-09-19T08:36:24.861Z,4976.00
2018-09-19T08:37:25.019Z,4992.00
2018-09-19T08:38:25.186Z,4996.00
2018-09-19T08:39:25.331Z,5008.00
2018-09-19T08:40:25.488Z,5004.00
2018-09-19T08:41:25.648Z,5004.00
2018-09-19T08:42:25.805Z,4936.00
2018-09-19T08:43:25.960Z,4948.00
2018-09-19T08:44:26.120Z,4888.00
2018-09-19T08:45:26.273Z,4988.00
2018-09-19T08:46:26.429Z,4944.00
2018-09-19T08:47:26.587Z,4972.00
2018-09-19T08:48:26.742Z,4984.00
2018-09-19T08:49:26.897Z,4904.00
2018-09-19T08:50:27.098Z,4972.00
2018-09-19T08:51:27.210Z,4980.00
2018-09-19T08:52:27.370Z,4984.00
2018-09-19T08:53:27.525Z,4988.00
2018-09-19T08:54:27.683Z,4772.00
2018-09-19T08:55:27.858Z,4988.00
2018-09-19T08:56:27.998Z,5008.00
2018-09-19T08:57:28.155Z,5044.00
2018-09-19T08:58:28.357Z,5060.00
2018-09-19T08:59:28.467Z,5084.00
2018-09-19T09:00:28.625Z,5100.00
2018-09-19T09:01:28.780Z,5108.00
2018-09-19T09:02:28.948Z,5116.00
2018-09-19T09:03:29.100Z,5116.00
2018-09-19T09:04:29.256Z,5104.00
2018-09-19T09:05:29.472Z,5100.00
2018-09-19T09:06:29.567Z,5104.00
2018-09-19T09:07:29.728Z,5104.00
2018-09-19T09:08:29.884Z,5088.00
2018-09-19T09:09:30.044Z,5096.00
2018-09-19T09:10:30.204Z,5092.00
2018-09-19T09:11:30.358Z,5096.00
2018-09-19T09:12:30.567Z,5124.00
2018-09-19T09:13:30.708Z,5136.00
2018-09-19T09:14:30.832Z,5132.00
2018-09-19T09:15:30.982Z,5148.00
2018-09-19T09:16:31.136Z,5172.00
2018-09-19T09:17:31.294Z,5180.00
2018-09-19T09:18:31.451Z,5180.00
2018-09-19T09:19:31.608Z,5192.00
2018-09-19T09:20:31.790Z,5192.00
2018-09-19T09:21:31.922Z,5204.00
2018-09-19T09:22:32.083Z,5208.00
2018-09-19T09:23:32.241Z,5212.00
2018-09-19T09:24:32.405Z,5212.00
2018-09-19T09:25:32.559Z,5220.00
2018-09-19T09:26:32.717Z,5232.00
2018-09-19T09:27:32.880Z,5216.00
2018-09-19T09:28:33.036Z,5204.00
2018-09-19T09:29:33.191Z,5204.00
2018-09-19T09:30:33.350Z,5192.00
2018-09-19T09:31:33.515Z,5184.00
2018-09-19T09:32:33.665Z,5168.00
2018-09-19T09:33:33.823Z,5140.00
2018-09-19T09:34:33.986Z,5128.00
2018-09-19T09:35:34.142Z,5100.00
2018-09-19T09:36:34.340Z,5088.00
2018-09-19T09:37:34.466Z,5088.00
2018-09-19T09:38:34.613Z,5080.00
2018-09-19T09:39:34.771Z,5076.00
2018-09-19T09:40:35.015Z,5064.00
2018-09-19T09:41:35.094Z,5044.00
2018-09-19T09:42:35.251Z,5044.00
2018-09-19T09:43:35.446Z,5040.00
2018-09-19T09:44:35.570Z,5032.00
2018-09-19T09:45:35.727Z,5032.00
2018-09-19T09:46:35.883Z,5028.00
2018-09-19T09:47:36.044Z,5012.00
2018-09-19T09:48:36.201Z,5016.00
2018-09-19T09:49:36.359Z,5020.00
2018-09-19T09:50:36.523Z,5036.00
2018-09-19T09:51:36.681Z,5028.00
2018-09-19T09:52:36.842Z,5044.00
2018-09-19T09:53:37.000Z,5068.00
2018-09-19T09:54:37.161Z,5056.00
2018-09-19T09:55:37.320Z,5044.00
2018-09-19T09:56:37.485Z,5032.00
2018-09-19T09:57:37.644Z,5056.00
2018-09-19T09:58:37.805Z,5052.00
2018-09-19T09:59:37.963Z,5048.00
2018-09-19T10:00:38.128Z,5068.00
2018-09-19T10:01:38.287Z,5064.00
2018-09-19T10:02:38.447Z,5052.00
2018-09-19T10:03:38.607Z,5060.00
2018-09-19T10:04:38.764Z,5064.00
2018-09-19T10:05:38.924Z,5064.00
2018-09-19T10:06:39.086Z,5076.00
2018-09-19T10:07:39.250Z,5088.00
2018-09-19T10:08:39.406Z,5092.00
2018-09-19T10:09:39.563Z,5104.00
2018-09-19T10:10:39.723Z,5100.00
2018-09-19T10:11:39.879Z,5112.00
2018-09-19T10:12:40.041Z,5124.00
2018-09-19T10:13:40.254Z,5136.00
2018-09-19T10:14:40.360Z,5148.00
2018-09-19T10:15:40.519Z,5140.00
2018-09-19T10:16:40.678Z,5148.00
2018-09-19T10:17:40.837Z,5160.00
2018-09-19T10:18:41.003Z,5160.00
2018-09-19T10:19:41.157Z,5160.00
2018-09-19T10:20:41.319Z,5148.00
2018-09-19T10:21:41.479Z,5152.00
2018-09-19T10:22:41.639Z,5176.00
2018-09-19T10:23:41.798Z,5172.00
2018-09-19T10:24:41.956Z,5180.00
2018-09-19T10:25:42.117Z,5176.00
2018-09-19T10:26:42.275Z,5180.00
2018-09-19T10:27:42.436Z,5172.00
2018-09-19T10:28:42.595Z,5176.00
2018-09-19T10:29:42.829Z,5168.00
2018-09-19T10:30:42.916Z,5192.00
2018-09-19T10:31:43.098Z,5220.00
2018-09-19T10:32:43.256Z,5228.00
2018-09-19T10:33:43.389Z,5232.00
2018-09-19T10:34:43.563Z,5272.00
2018-09-19T10:35:43.731Z,5324.00
2018-09-19T10:36:43.875Z,5360.00
2018-09-19T10:37:44.031Z,5396.00
2018-09-19T10:38:44.196Z,5344.00
2018-09-19T10:39:44.343Z,5360.00
2018-09-19T10:40:44.513Z,5436.00
2018-09-19T10:41:44.669Z,4276.00
2018-09-19T10:42:44.832Z,5340.00
2018-09-19T10:43:45.027Z,5420.00
2018-09-19T10:44:45.152Z,5436.00
2018-09-19T10:45:45.313Z,5456.00
2018-09-19T10:46:45.471Z,5540.00
2018-09-19T10:47:45.635Z,5640.00
2018-09-19T10:48:45.792Z,5672.00
2018-09-19T10:49:45.952Z,5788.00
2018-09-19T10:50:46.112Z,5864.00
2018-09-19T10:51:46.272Z,5932.00
2018-09-19T10:52:46.431Z,5948.00
2018-09-19T10:53:46.596Z,6092.00
2018-09-19T10:54:46.758Z,6296.00
2018-09-19T10:55:46.912Z,6320.00
2018-09-19T10:56:47.123Z,6244.00
2018-09-19T10:57:47.235Z,6308.00
2018-09-19T10:58:47.394Z,6224.00
2018-09-19T10:59:47.556Z,6304.00
2018-09-19T11:00:47.720Z,5168.00
2018-09-19T11:01:47.873Z,5068.00
2018-09-19T11:02:48.034Z,5088.00
2018-09-19T11:03:48.195Z,5204.00
2018-09-19T11:04:48.356Z,5336.00
2018-09-19T11:05:48.515Z,6232.00
2018-09-19T11:06:48.677Z,6760.00
2018-09-19T11:07:48.837Z,6876.00
2018-09-19T11:08:48.998Z,6876.00
2018-09-19T11:09:49.163Z,5404.00
2018-09-19T11:10:49.308Z,5708.00
2018-09-19T11:11:49.469Z,5320.00
2018-09-19T11:12:49.631Z,4836.00
2018-09-19T11:13:49.783Z,6096.00
2018-09-19T11:14:49.943Z,4948.00
2018-09-19T11:15:50.099Z,4940.00
2018-09-19T11:16:50.258Z,6276.00
2018-09-19T11:17:50.439Z,6164.00
2018-09-19T11:18:50.600Z,6044.00
2018-09-19T11:19:50.759Z,5904.00
2018-09-19T11:20:50.922Z,5772.00
2018-09-19T11:21:51.081Z,5684.00
2018-09-19T11:22:51.245Z,5628.00
2018-09-19T11:23:51.404Z,5608.00
2018-09-19T11:24:51.562Z,5568.00
2018-09-19T11:25:51.721Z,5600.00
2018-09-19T11:26:51.885Z,5612.00
2018-09-19T11:27:52.048Z,5648.00
2018-09-19T11:28:52.207Z,5664.00
2018-09-19T11:29:52.366Z,5744.00
2018-09-19T11:30:52.525Z,5864.00
2018-09-19T11:31:52.684Z,5948.00
2018-09-19T11:32:52.847Z,5936.00
2018-09-19T11:33:53.008Z,5908.00
2018-09-19T11:34:53.171Z,5832.00
2018-09-19T11:35:53.328Z,5124.00
2018-09-19T11:36:53.502Z,5712.00
2018-09-19T11:37:53.652Z,4528.00
2018-09-19T11:38:53.813Z,5644.00
2018-09-19T11:39:53.971Z,5628.00
2018-09-19T11:40:54.133Z,4728.00
2018-09-19T11:41:54.295Z,5552.00
2018-09-19T11:42:54.457Z,4336.00
2018-09-19T11:43:54.624Z,5600.00
2018-09-19T11:44:54.780Z,5732.00
2018-09-19T11:45:54.946Z,5788.00
2018-09-19T11:46:55.104Z,5844.00
2018-09-19T11:47:55.263Z,5880.00
2018-09-19T11:48:55.425Z,5776.00
2018-09-19T11:49:55.589Z,5228.00
2018-09-19T11:50:55.755Z,5716.00
2018-09-19T11:51:55.905Z,5688.00
2018-09-19T11:52:56.063Z,5648.00
2018-09-19T11:53:56.223Z,5724.00
2018-09-19T11:54:56.383Z,5832.00
2018-09-19T11:55:56.540Z,5916.00
2018-09-19T11:56:56.687Z,5876.00
2018-09-19T11:57:56.857Z,5860.00
2018-09-19T11:58:57.012Z,5908.00
2018-09-19T11:59:57.176Z,5996.00
2018-09-19T12:00:57.337Z,6104.00
2018-09-19T12:01:57.509Z,5092.00
2018-09-19T12:02:57.641Z,6488.00
2018-09-19T12:03:57.804Z,5900.00
2018-09-19T12:04:57.960Z,7204.00
2018-09-19T12:05:58.135Z,7404.00
2018-09-19T12:06:58.296Z,7392.00
2018-09-19T12:07:58.457Z,6200.00
2018-09-19T12:08:58.622Z,6808.00
2018-09-19T12:09:58.778Z,7084.00
2018-09-19T12:10:58.939Z,6864.00
2018-09-19T12:11:59.102Z,7356.00
2018-09-19T12:12:59.263Z,6184.00
2018-09-19T12:13:59.427Z,6124.00
2018-09-19T12:14:59.590Z,5992.00
2018-09-19T12:15:59.750Z,5968.00
2018-09-19T12:16:59.913Z,6428.00
2018-09-19T12:18:00.074Z,6388.00
2018-09-19T12:19:00.234Z,6160.00
2018-09-19T12:20:00.397Z,5604.00
2018-09-19T12:21:00.557Z,6708.00
2018-09-19T12:22:00.724Z,6068.00
2018-09-19T12:23:00.886Z,6244.00
2018-09-19T12:24:01.044Z,6772.00
2018-09-19T12:25:01.205Z,6708.00
2018-09-19T12:26:01.366Z,6028.00
2018-09-19T12:27:01.532Z,5600.00
2018-09-19T12:28:01.694Z,5868.00
2018-09-19T12:29:01.854Z,7384.00
2018-09-19T12:30:02.017Z,7660.00
2018-09-19T12:31:02.179Z,7848.00
2018-09-19T12:32:02.343Z,8076.00
2018-09-19T12:33:02.508Z,8216.00
2018-09-19T12:34:02.673Z,8136.00